Stations météo

réclame
Mon MeteoGroup
Chamonix, France (7469): Température de l'air & dewpoint: 11.10.2018 07:00:00 - 17.10.2018 07:00:00 (CEST)Chamonix, France (7469): Vitesse du vent & gusts: 11.10.2018 07:00:00 - 17.10.2018 07:00:00 (CEST)Chamonix, France (7469): Direction du vent: 11.10.2018 07:00:00 - 17.10.2018 07:00:00 (CEST)Chamonix, France (7469): Quantités de précipitations: 11.10.2018 07:00:00 - 17.10.2018 07:00:00 (CEST)
Date & Time tt [°C] td [°C] ff [km/h] ff [knt] fx [km/h] fx [knt] dd rr [mm]
17.10.2018 07:00:00 3,5 3,1 0 0 5 3 N 0,0
17.10.2018 06:00:00 3,0 2,6 0 0 4 2 N 0,0
17.10.2018 05:00:00 3,1 2,5 0 0 4 2 N 0,0
17.10.2018 04:00:00 3,4 2,7 0 0 4 2 N 0,0
17.10.2018 03:00:00 3,8 2,9 0 0 5 3 N 0,0
17.10.2018 02:00:00 4,1 3,1 0 0 4 2 N -
17.10.2018 01:00:00 4,7 3,5 0 0 4 2 N 0,0
17.10.2018 00:00:00 4,9 3,6 0 0 4 2 N 0,0
16.10.2018 23:00:00 5,5 3,7 0 0 5 3 N 0,0
16.10.2018 22:00:00 6,3 4,0 0 0 4 2 N 0,0
16.10.2018 21:00:00 7,4 4,5 0 0 4 2 N 0,0
16.10.2018 20:00:00 9,0 5,2 0 0 4 2 N -
16.10.2018 19:00:00 11,5 5,6 0 0 5 3 N 0,0
16.10.2018 18:00:00 15,9 5,2 0 0 15 8 N 0,0
16.10.2018 17:00:00 19,7 2,1 8 4 16 9 WSW 0,0
16.10.2018 16:00:00 20,1 2,4 9 5 15 8 W 0,0
16.10.2018 15:00:00 20,1 1,5 4 2 13 7 WSW 0,0
16.10.2018 14:00:00 20,6 2,4 4 2 9 5 S -
16.10.2018 13:00:00 18,0 3,8 4 2 21 11 ENE 0,0
16.10.2018 12:00:00 16,4 4,4 5 3 18 10 ENE 0,0
16.10.2018 11:00:00 12,0 4,0 2 1 18 10 E 0,0
16.10.2018 10:00:00 12,7 2,5 5 3 28 15 NE 0,0
16.10.2018 09:00:00 11,8 2,3 8 4 18 10 NNE 0,0
16.10.2018 08:00:00 12,0 1,9 4 2 26 14 NE -
16.10.2018 07:00:00 12,9 1,5 8 4 29 16 N 0,0
16.10.2018 06:00:00 13,2 1,5 8 4 31 17 NNE 0,0
16.10.2018 05:00:00 13,4 1,7 8 4 39 21 NNE 0,0
16.10.2018 04:00:00 13,4 1,7 8 4 31 17 NE 0,0
16.10.2018 03:00:00 13,5 1,5 8 4 29 16 NNE 0,0
16.10.2018 02:00:00 13,6 1,6 5 3 34 18 NNE -
16.10.2018 01:00:00 13,8 1,4 9 5 34 18 NNE 0,0
16.10.2018 00:00:00 14,1 2,0 9 5 39 21 NNE 0,0
15.10.2018 23:00:00 14,0 1,9 8 4 35 19 NE 0,0
15.10.2018 22:00:00 14,2 1,8 8 4 34 18 NE 0,0
15.10.2018 21:00:00 14,6 1,5 11 6 34 18 NNE 0,0
15.10.2018 20:00:00 14,7 1,2 9 5 28 15 NNE -
15.10.2018 19:00:00 14,8 0,6 8 4 37 20 NNE 0,0
15.10.2018 18:00:00 16,0 1,3 13 7 35 19 NNE 0,0
15.10.2018 17:00:00 17,3 -0,5 11 6 39 21 N 0,0
15.10.2018 16:00:00 18,6 0,7 11 6 35 19 NNE 0,0
15.10.2018 15:00:00 20,6 -0,1 8 4 34 18 NE 0,0
15.10.2018 14:00:00 20,3 1,2 11 6 35 19 NE -
15.10.2018 13:00:00 18,5 1,0 9 5 41 22 ENE 0,0
15.10.2018 12:00:00 18,4 1,4 8 4 44 24 ESE 0,0
15.10.2018 11:00:00 14,3 1,5 9 5 42 23 ESE 0,0
15.10.2018 10:00:00 13,1 0,8 13 7 37 20 NNE 0,0
15.10.2018 09:00:00 11,7 0,5 5 3 28 15 E 0,0
15.10.2018 08:00:00 12,0 0,1 8 4 39 21 E -
15.10.2018 07:00:00 12,2 0,3 11 6 46 25 NW 0,0
15.10.2018 06:00:00 12,7 -0,2 13 7 44 24 N 0,0
15.10.2018 05:00:00 12,8 -0,1 11 6 48 26 N 0,0
15.10.2018 04:00:00 13,1 -0,2 15 8 46 25 N 0,0
15.10.2018 03:00:00 13,7 0,0 13 7 44 24 N 0,0
15.10.2018 02:00:00 13,3 0,0 15 8 39 21 NNW -
15.10.2018 01:00:00 13,1 0,5 9 5 37 20 N 0,0
15.10.2018 00:00:00 13,3 0,6 8 4 35 19 ESE 0,0
14.10.2018 23:00:00 13,7 1,0 11 6 42 23 N 0,0
14.10.2018 22:00:00 14,7 1,2 16 9 44 24 N 0,0
14.10.2018 21:00:00 15,1 0,9 15 8 46 25 NNE 0,0
14.10.2018 20:00:00 16,3 0,4 18 10 52 28 NNE -
14.10.2018 19:00:00 16,4 0,9 16 9 41 22 N 0,0
14.10.2018 18:00:00 17,3 -0,9 11 6 34 18 N 0,0
14.10.2018 17:00:00 21,1 0,3 5 3 29 16 ENE 0,0
14.10.2018 16:00:00 21,3 -0,7 8 4 31 17 ENE 0,0
14.10.2018 15:00:00 21,5 0,1 8 4 26 14 N 0,0
14.10.2018 14:00:00 21,9 2,6 4 2 34 18 ESE -
14.10.2018 13:00:00 19,0 2,8 9 5 42 23 NE 0,0
14.10.2018 12:00:00 17,4 2,2 11 6 39 21 NE 0,0
14.10.2018 11:00:00 14,7 1,9 9 5 48 26 ENE 0,0
14.10.2018 10:00:00 14,1 2,6 13 7 48 26 NNE 0,0
14.10.2018 09:00:00 13,7 2,6 11 6 50 27 ENE 0,0
14.10.2018 08:00:00 14,0 2,6 15 8 48 26 N -
14.10.2018 07:00:00 14,5 3,0 16 9 48 26 N 0,0
14.10.2018 06:00:00 14,5 3,3 13 7 46 25 NNE 0,0
14.10.2018 05:00:00 14,0 3,7 8 4 39 21 NNE 0,0
14.10.2018 04:00:00 11,4 5,0 5 3 24 13 NW 0,0
14.10.2018 03:00:00 5,4 5,0 0 0 8 4 N 0,0
14.10.2018 02:00:00 5,2 4,6 0 0 5 3 N -
14.10.2018 01:00:00 5,9 5,2 0 0 4 2 N 0,0
14.10.2018 00:00:00 6,1 5,2 0 0 9 5 N 0,0
13.10.2018 23:00:00 6,7 5,8 2 1 5 3 E 0,0
13.10.2018 22:00:00 7,4 6,2 0 0 4 2 N 0,0
13.10.2018 21:00:00 8,6 7,1 0 0 4 2 N 0,0
13.10.2018 20:00:00 10,3 8,1 0 0 4 2 N -
13.10.2018 19:00:00 12,5 8,6 0 0 4 2 N 0,0
13.10.2018 18:00:00 17,0 9,4 0 0 9 5 N 0,0
13.10.2018 17:00:00 21,0 5,7 5 3 18 10 W 0,0
13.10.2018 16:00:00 22,4 5,8 9 5 18 10 WSW 0,0
13.10.2018 15:00:00 23,6 5,5 4 2 16 9 SSW 0,0
13.10.2018 14:00:00 23,1 5,0 2 1 9 5 S -
13.10.2018 13:00:00 20,0 4,9 2 1 5 3 SSW 0,0
13.10.2018 12:00:00 11,0 10,8 4 2 8 4 ESE 0,0
13.10.2018 11:00:00 4,4 4,3 0 0 4 2 N 0,0
13.10.2018 10:00:00 3,8 3,7 0 0 4 2 N 0,0
13.10.2018 09:00:00 3,4 3,1 0 0 8 4 N 0,0
13.10.2018 08:00:00 3,2 2,9 2 1 8 4 NNE -
13.10.2018 07:00:00 3,4 3,1 0 0 8 4 N 0,0
13.10.2018 06:00:00 3,5 3,2 0 0 8 4 N 0,0
13.10.2018 05:00:00 3,8 3,4 0 0 5 3 N 0,0
13.10.2018 04:00:00 4,1 3,7 0 0 8 4 N 0,0
13.10.2018 03:00:00 4,5 4,1 0 0 4 2 N 0,0
13.10.2018 02:00:00 5,0 4,6 0 0 5 3 N -
13.10.2018 01:00:00 5,4 4,8 0 0 4 2 N 0,0
13.10.2018 00:00:00 6,0 5,3 0 0 4 2 N 0,0
12.10.2018 23:00:00 6,7 5,8 0 0 2 1 N 0,0
12.10.2018 22:00:00 7,5 6,3 0 0 4 2 N 0,0
12.10.2018 21:00:00 8,6 7,1 2 1 5 3 ESE 0,0
12.10.2018 20:00:00 10,0 7,6 0 0 4 2 N -
12.10.2018 19:00:00 12,4 7,9 0 0 4 2 N 0,0
12.10.2018 18:00:00 17,4 8,3 0 0 16 9 N 0,0
12.10.2018 17:00:00 20,7 5,9 9 5 18 10 WSW 0,0
12.10.2018 16:00:00 20,5 5,3 8 4 16 9 WSW 0,0
12.10.2018 15:00:00 24,5 4,8 2 1 9 5 S 0,0
12.10.2018 14:00:00 22,3 4,8 0 0 11 6 N -
12.10.2018 13:00:00 20,1 6,4 4 2 21 11 ENE 0,0
12.10.2018 12:00:00 18,0 5,6 4 2 21 11 E 0,0
12.10.2018 11:00:00 13,1 8,6 4 2 11 6 E 0,0
12.10.2018 10:00:00 8,9 7,8 0 0 8 4 N 0,0
12.10.2018 09:00:00 6,2 5,8 2 1 8 4 S 0,0
12.10.2018 08:00:00 4,7 4,1 0 0 9 5 N -
12.10.2018 07:00:00 4,6 3,9 0 0 8 4 N 0,0
12.10.2018 06:00:00 5,2 4,3 0 0 5 3 N 0,0
12.10.2018 05:00:00 6,1 4,9 0 0 5 3 N 0,0
12.10.2018 04:00:00 7,3 5,6 0 0 5 3 N 0,0
12.10.2018 03:00:00 8,6 6,2 0 0 9 5 N 0,0
12.10.2018 02:00:00 8,4 6,0 2 1 8 4 ESE -
12.10.2018 01:00:00 7,2 5,7 2 1 9 5 ESE 0,0
12.10.2018 00:00:00 7,7 5,7 0 0 8 4 N 0,0
11.10.2018 23:00:00 8,8 6,1 0 0 8 4 N 0,0
11.10.2018 22:00:00 9,4 6,1 0 0 5 3 N 0,0
11.10.2018 21:00:00 10,7 5,9 2 1 8 4 NE 0,0
11.10.2018 20:00:00 13,6 5,0 0 0 15 8 N -
11.10.2018 19:00:00 15,9 4,6 5 3 29 16 N 0,0
11.10.2018 18:00:00 17,1 4,4 9 5 35 19 N 0,0
11.10.2018 17:00:00 20,3 5,9 9 5 29 16 NNE 0,0
11.10.2018 16:00:00 21,0 4,9 9 5 29 16 NNE 0,0
11.10.2018 15:00:00 20,5 4,9 9 5 31 17 NE 0,0
11.10.2018 14:00:00 20,1 7,1 8 4 28 15 ENE -
11.10.2018 13:00:00 17,1 6,6 8 4 41 22 E 0,0
11.10.2018 12:00:00 15,6 6,0 8 4 42 23 S 0,0
11.10.2018 11:00:00 15,0 4,9 9 5 41 22 ENE 0,0
11.10.2018 10:00:00 12,7 7,4 4 2 9 5 WNW 0,0
11.10.2018 09:00:00 11,8 7,5 0 0 8 4 N 0,0
11.10.2018 08:00:00 12,2 6,7 0 0 15 8 N -
11.10.2018 07:00:00 13,9 6,3 4 2 16 9 SW 0,0

tt = Température de l'air
td = dewpoint
ff = Vitesse du vent
fx = gusts
dd = Direction du vent
rr = Quantités de précipitations

stations d'obs. à proximité